Time;durP1;ratioP1;P1;durP2;ratioP2;P2;SDS_P1;SDS_P2;PMS_P1;PMS_P2;Temp;Humidity;BMP_temperature;BMP_pressure;BME280_temperature;BME280_humidity;BME280_pressure;Samples;Min_cycle;Max_cycle;Signal;HPM_P1;HPM_P2
2022/01/10 00:00:09;;;;;;;43.88;16.70;;;;;;;3.24;65.55;101087.34;5251229;28;20437;-44
2022/01/10 00:02:42;;;;;;;46.10;17.07;;;;;;;3.23;65.72;101096.09;5244852;28;20821;-45
2022/01/10 00:05:14;;;;;;;59.55;19.63;;;;;;;3.23;65.88;101088.28;5247022;28;20417;-43
2022/01/10 00:07:47;;;;;;;54.50;20.67;;;;;;;3.28;65.77;101092.38;5240594;28;20912;-44
2022/01/10 00:10:21;;;;;;;70.65;22.38;;;;;;;3.31;65.67;101094.78;5244515;28;20428;-44
2022/01/10 00:12:53;;;;;;;61.50;21.35;;;;;;;3.34;65.67;101098.03;5248793;28;20871;-44
2022/01/10 00:15:26;;;;;;;68.20;23.38;;;;;;;3.40;65.61;101102.88;5249513;28;20841;-44
2022/01/10 00:17:58;;;;;;;65.53;25.90;;;;;;;3.46;65.86;101101.66;5251232;28;20403;-51
2022/01/10 00:20:30;;;;;;;67.15;24.95;;;;;;;3.52;65.75;101116.94;5246925;28;20400;-44
2022/01/10 00:23:03;;;;;;;61.45;22.95;;;;;;;3.56;65.76;101107.97;5248591;28;20418;-44
2022/01/10 00:25:37;;;;;;;83.95;24.48;;;;;;;3.58;65.97;101106.09;5245163;28;20440;-47
2022/01/10 00:28:09;;;;;;;63.20;23.50;;;;;;;3.64;65.89;101115.31;5246456;28;20422;-42
2022/01/10 00:30:41;;;;;;;69.53;21.63;;;;;;;3.68;65.65;101125.44;5248380;28;20769;-43
2022/01/10 00:33:14;;;;;;;61.58;19.60;;;;;;;3.68;65.63;101122.84;5246459;28;20406;-43
2022/01/10 00:35:47;;;;;;;49.53;19.10;;;;;;;3.67;65.59;101125.56;5249992;28;20584;-43
2022/01/10 00:38:19;;;;;;;45.70;17.40;;;;;;;3.69;66.05;101131.53;5247654;28;20414;-45
2022/01/10 00:40:53;;;;;;;44.70;19.70;;;;;;;3.72;65.76;101139.19;5247562;28;20912;-43
2022/01/10 00:43:33;;;;;;;58.22;18.90;;;;;;;3.75;65.96;101141.59;5250898;28;20410;-44
2022/01/10 00:46:05;;;;;;;54.65;19.40;;;;;;;3.79;65.80;101143.06;5245204;28;20420;-44
2022/01/10 00:48:37;;;;;;;61.03;19.67;;;;;;;3.84;65.79;101146.22;5236176;28;20416;-45
2022/01/10 00:51:10;;;;;;;58.15;19.98;;;;;;;3.88;65.75;101154.69;5246548;28;20407;-44
2022/01/10 00:53:44;;;;;;;62.50;19.10;;;;;;;3.92;66.02;101157.00;5246789;28;20398;-43
2022/01/10 00:56:18;;;;;;;56.25;17.80;;;;;;;3.98;65.79;101155.78;5246025;28;20881;-45
2022/01/10 00:58:51;;;;;;;52.90;18.75;;;;;;;4.03;65.83;101158.94;5242416;28;20591;-44
2022/01/10 01:01:23;;;;;;;63.28;18.85;;;;;;;4.07;65.74;101168.25;5240996;28;20422;-43
2022/01/10 01:03:55;;;;;;;52.67;17.85;;;;;;;4.12;65.74;101174.03;5247169;28;20424;-43
2022/01/10 01:06:27;;;;;;;48.55;17.40;;;;;;;4.15;65.93;101173.81;5239343;28;20410;-47
2022/01/10 01:09:06;;;;;;;55.22;16.38;;;;;;;4.19;66.00;101176.22;5246053;28;20487;-44
2022/01/10 01:12:09;;;;;;;52.97;16.77;;;;;;;4.25;65.76;101168.00;5247198;28;20398;-46
2022/01/10 01:17:56;;;;;;;55.97;18.80;;;;;;;4.30;66.07;101182.41;5239916;28;20402;-43
2022/01/10 01:20:42;;;;;;;44.25;17.38;;;;;;;4.33;65.99;101176.16;5242615;28;20399;-43
2022/01/10 01:26:09;;;;;;;60.03;18.20;;;;;;;4.35;66.18;101189.97;5245769;28;20390;-49
2022/01/10 01:28:43;;;;;;;58.35;18.13;;;;;;;4.37;66.07;101196.78;5241841;28;20479;-45
2022/01/10 01:31:15;;;;;;;54.53;18.67;;;;;;;4.36;66.20;101202.09;5247204;28;20509;-43
2022/01/10 01:33:48;;;;;;;54.63;18.95;;;;;;;4.40;66.05;101200.97;5246137;28;20439;-44
2022/01/10 01:36:23;;;;;;;57.92;17.25;;;;;;;4.40;66.17;101206.22;5247311;28;20987;-43
2022/01/10 01:38:56;;;;;;;49.30;16.88;;;;;;;4.42;66.21;101201.69;5246357;28;20864;-44
2022/01/10 01:41:39;;;;;;;50.67;18.25;;;;;;;4.43;66.16;101215.59;5244319;28;20420;-43
2022/01/10 01:44:12;;;;;;;50.67;17.27;;;;;;;4.44;66.26;101214.69;5234873;28;20905;-43
2022/01/10 01:46:45;;;;;;;58.38;16.45;;;;;;;4.46;66.54;101221.50;5243167;28;20425;-45
2022/01/10 01:49:18;;;;;;;50.58;16.50;;;;;;;4.48;66.23;101235.28;5246925;28;20414;-42
2022/01/10 01:51:50;;;;;;;55.20;16.90;;;;;;;4.49;66.27;101237.00;5241451;28;20402;-45
2022/01/10 01:54:23;;;;;;;51.80;17.63;;;;;;;4.50;66.13;101241.28;5249296;28;20429;-42
2022/01/10 01:56:56;;;;;;;60.83;18.55;;;;;;;4.49;66.28;101250.06;5247335;28;20420;-44
2022/01/10 01:59:30;;;;;;;51.33;16.90;;;;;;;4.52;66.21;101244.63;5250019;28;20862;-44
2022/01/10 02:02:03;;;;;;;49.65;17.52;;;;;;;4.53;66.31;101256.75;5246867;28;20912;-43
2022/01/10 02:04:35;;;;;;;48.03;17.50;;;;;;;4.57;66.47;101278.31;5246530;28;20408;-44
2022/01/10 02:07:08;;;;;;;47.88;18.30;;;;;;;4.60;66.54;101265.88;5241815;28;20698;-48
2022/01/10 02:09:40;;;;;;;57.22;18.90;;;;;;;4.63;66.58;101283.97;5241591;28;20415;-44
2022/01/10 02:12:12;;;;;;;43.25;18.85;;;;;;;4.68;66.63;101280.25;5237277;28;20422;-44
2022/01/10 02:14:47;;;;;;;53.30;17.88;;;;;;;4.71;66.28;101290.50;5237321;28;20416;-48
2022/01/10 02:17:22;;;;;;;44.65;17.17;;;;;;;4.76;66.37;101291.03;5249416;28;20433;-45
2022/01/10 02:19:57;;;;;;;63.25;16.48;;;;;;;4.80;66.40;101295.97;5245986;28;20975;-46
2022/01/10 02:22:29;;;;;;;46.65;15.90;;;;;;;4.84;66.64;101307.91;5241661;28;20400;-45
2022/01/10 02:25:01;;;;;;;49.73;17.00;;;;;;;4.89;66.51;101302.34;5241976;28;20478;-44
2022/01/10 02:27:34;;;;;;;45.22;16.67;;;;;;;4.92;66.57;101302.16;5237197;28;20754;-47
2022/01/10 02:30:07;;;;;;;45.33;16.75;;;;;;;4.95;66.47;101307.19;5245405;28;20550;-44
2022/01/10 02:32:40;;;;;;;44.38;14.57;;;;;;;4.99;66.35;101311.28;5242513;28;20402;-45
2022/01/10 02:35:23;;;;;;;44.08;16.17;;;;;;;4.99;66.53;101319.16;5237473;28;20414;-45
2022/01/10 02:37:56;;;;;;;41.95;16.75;;;;;;;5.03;66.64;101332.88;5245012;28;20772;-45
2022/01/10 02:40:31;;;;;;;42.00;15.07;;;;;;;5.04;66.69;101324.91;5246728;28;20438;-44
2022/01/10 02:43:08;;;;;;;45.28;15.65;;;;;;;5.09;66.90;101337.69;5246281;28;20640;-45
2022/01/10 02:45:41;;;;;;;41.45;16.23;;;;;;;5.09;66.45;101327.22;5246001;28;20409;-44
2022/01/10 02:48:15;;;;;;;49.60;14.63;;;;;;;5.13;66.88;101338.31;5236201;28;20419;-45
2022/01/10 02:50:49;;;;;;;44.17;14.07;;;;;;;5.16;66.50;101351.22;5245192;28;20449;-44
2022/01/10 02:53:22;;;;;;;44.33;14.20;;;;;;;5.16;66.87;101344.19;5246333;28;20856;-44
2022/01/10 02:55:54;;;;;;;45.42;15.50;;;;;;;5.23;66.79;101344.63;5243194;28;20418;-44
2022/01/10 02:58:26;;;;;;;40.67;13.80;;;;;;;5.27;66.64;101351.34;5244089;28;20872;-44
2022/01/10 03:00:59;;;;;;;46.03;14.00;;;;;;;5.30;66.86;101359.00;5241785;28;20496;-45
2022/01/10 03:03:31;;;;;;;41.80;14.18;;;;;;;5.32;66.76;101350.06;5246978;28;20868;-44
2022/01/10 03:06:05;;;;;;;54.15;15.25;;;;;;;5.34;66.85;101360.47;5244288;28;20414;-45
2022/01/10 03:08:37;;;;;;;46.65;13.05;;;;;;;5.35;66.71;101356.88;5237272;28;20415;-45
2022/01/10 03:11:11;;;;;;;43.35;13.95;;;;;;;5.38;66.87;101363.72;5233325;28;20411;-44
2022/01/10 03:13:43;;;;;;;38.95;14.25;;;;;;;5.40;66.85;101372.31;5243746;28;20770;-45
2022/01/10 03:16:15;;;;;;;41.33;14.33;;;;;;;5.39;66.86;101386.31;5241939;28;21079;-43
2022/01/10 03:18:47;;;;;;;39.17;12.88;;;;;;;5.41;66.88;101379.22;5248835;28;20423;-45
2022/01/10 03:21:21;;;;;;;40.55;13.45;;;;;;;5.41;66.75;101395.78;5250405;28;20405;-45
2022/01/10 03:23:54;;;;;;;46.17;13.77;;;;;;;5.39;66.94;101397.66;5250640;28;20434;-44
2022/01/10 03:26:27;;;;;;;48.72;14.32;;;;;;;5.41;66.87;101405.41;5253823;28;20418;-44
2022/01/10 03:28:59;;;;;;;42.05;14.55;;;;;;;5.42;66.93;101401.84;5249351;28;20693;-46
2022/01/10 03:31:31;;;;;;;43.40;13.50;;;;;;;5.42;66.89;101397.47;5241882;28;20485;-43
2022/01/10 03:34:06;;;;;;;31.45;14.38;;;;;;;5.44;66.95;101400.81;5248474;28;20416;-46
2022/01/10 03:36:40;;;;;;;41.17;13.55;;;;;;;5.47;66.74;101415.47;5246694;28;20445;-47
2022/01/10 03:39:14;;;;;;;44.88;13.05;;;;;;;5.49;67.27;101411.81;5245018;28;20976;-45
2022/01/10 03:41:46;;;;;;;44.55;12.70;;;;;;;5.50;67.24;101429.22;5247763;28;20408;-46
2022/01/10 03:44:18;;;;;;;42.38;12.80;;;;;;;5.50;67.21;101431.81;5248664;28;20436;-45
2022/01/10 03:46:51;;;;;;;51.58;14.15;;;;;;;5.54;67.09;101433.31;5250639;28;20426;-45
2022/01/10 03:49:23;;;;;;;37.70;13.20;;;;;;;5.54;67.15;101435.94;5249323;28;20420;-44
2022/01/10 03:51:57;;;;;;;40.08;13.13;;;;;;;5.56;67.18;101435.81;5247977;28;20433;-45
2022/01/10 03:54:29;;;;;;;34.30;12.85;;;;;;;5.59;66.97;101447.88;5245815;28;20785;-45
2022/01/10 03:57:01;;;;;;;34.42;12.77;;;;;;;5.61;67.14;101448.63;5248859;28;20406;-45
2022/01/10 03:59:36;;;;;;;34.22;12.18;;;;;;;5.60;67.32;101446.94;5251632;28;20421;-45
2022/01/10 04:02:09;;;;;;;44.88;12.77;;;;;;;5.62;67.17;101450.31;5246459;28;20727;-48
2022/01/10 04:04:41;;;;;;;38.53;12.82;;;;;;;5.61;67.01;101448.63;5240646;28;20398;-45
2022/01/10 04:07:17;;;;;;;40.07;12.03;;;;;;;5.61;67.34;101449.47;5247246;28;20828;-45
2022/01/10 04:09:49;;;;;;;35.22;11.20;;;;;;;5.63;67.08;101449.34;5249766;28;20514;-44
2022/01/10 04:12:21;;;;;;;36.60;12.43;;;;;;;5.64;67.13;101464.16;5244410;28;20414;-45
2022/01/10 04:14:54;;;;;;;45.15;12.95;;;;;;;5.64;67.08;101464.16;5249590;28;20673;-44
2022/01/10 04:17:26;;;;;;;44.17;11.67;;;;;;;5.52;67.20;101450.91;5247493;28;20410;-43
2022/01/10 04:19:58;;;;;;;34.83;11.75;;;;;;;5.68;67.40;101481.34;5237718;28;20432;-45
2022/01/10 04:22:32;;;;;;;36.03;12.15;;;;;;;5.69;67.33;101489.09;5245103;28;20421;-43
2022/01/10 04:25:06;;;;;;;35.20;13.13;;;;;;;5.72;67.44;101477.56;5236618;28;20423;-44
2022/01/10 04:27:38;;;;;;;40.17;13.02;;;;;;;5.75;67.21;101493.09;5243622;28;20420;-45
2022/01/10 04:30:11;;;;;;;37.78;13.10;;;;;;;5.77;67.35;101485.97;5248181;28;20783;-44
2022/01/10 04:32:44;;;;;;;40.40;13.32;;;;;;;5.77;67.18;101501.69;5249503;28;20410;-44
2022/01/10 04:35:17;;;;;;;41.20;14.00;;;;;;;5.77;67.38;101502.53;5249264;28;20497;-46
2022/01/10 04:37:50;;;;;;;44.40;12.15;;;;;;;5.78;67.23;101503.38;5236263;28;20408;-44
2022/01/10 04:40:24;;;;;;;41.38;13.20;;;;;;;5.79;67.57;101510.28;5244166;28;20737;-44
2022/01/10 04:42:57;;;;;;;38.50;12.57;;;;;;;5.82;67.24;101525.78;5248046;28;20415;-45
2022/01/10 04:45:29;;;;;;;39.80;12.27;;;;;;;5.83;67.19;101522.25;5248954;28;20427;-45
2022/01/10 04:48:02;;;;;;;37.35;13.88;;;;;;;5.85;67.45;101530.00;5245364;28;20402;-45
2022/01/10 04:51:03;;;;;;;43.13;12.73;;;;;;;5.87;67.33;101541.25;5246574;28;20426;-44
2022/01/10 04:53:34;;;;;;;39.75;12.23;;;;;;;5.89;67.44;101553.31;5245486;28;20402;-46
2022/01/10 04:56:07;;;;;;;34.20;10.85;;;;;;;5.89;67.29;101550.69;5246782;28;20753;-45
2022/01/10 04:58:41;;;;;;;41.78;14.18;;;;;;;5.90;67.48;101565.47;5247139;28;20398;-47
2022/01/10 05:01:14;;;;;;;38.25;13.77;;;;;;;5.90;67.30;101560.22;5248913;28;20863;-46
2022/01/10 05:03:47;;;;;;;39.63;11.93;;;;;;;5.90;67.50;101549.72;5243635;28;21200;-45
2022/01/10 05:06:19;;;;;;;33.03;11.95;;;;;;;5.88;67.44;101572.56;5247165;28;20410;-45
2022/01/10 05:08:53;;;;;;;36.90;12.57;;;;;;;5.88;67.53;101582.22;5238837;28;20482;-45
2022/01/10 05:11:25;;;;;;;39.63;12.40;;;;;;;5.89;67.71;101584.75;5249130;28;20496;-45
2022/01/10 05:13:59;;;;;;;42.17;12.25;;;;;;;5.88;67.30;101583.06;5250499;28;20422;-45
2022/01/10 05:16:31;;;;;;;27.33;11.80;;;;;;;5.87;67.40;101586.63;5243663;28;20416;-45
2022/01/10 05:19:03;;;;;;;36.90;12.93;;;;;;;5.87;67.53;101586.63;5239774;28;20774;-44
2022/01/10 05:21:36;;;;;;;34.40;12.90;;;;;;;5.76;67.64;101581.25;5245610;28;20831;-45
2022/01/10 05:24:10;;;;;;;36.50;12.38;;;;;;;5.86;67.50;101595.44;5238159;28;20425;-47
2022/01/10 05:26:42;;;;;;;32.72;12.07;;;;;;;5.87;67.46;101607.59;5246751;28;20395;-44
2022/01/10 05:29:15;;;;;;;34.22;11.48;;;;;;;5.87;67.56;101612.84;5250188;28;20436;-44
2022/01/10 05:31:48;;;;;;;32.60;12.88;;;;;;;5.84;67.47;101620.09;5248398;28;20485;-46
2022/01/10 05:34:20;;;;;;;32.50;11.97;;;;;;;5.84;67.47;101628.78;5246052;28;20827;-44
2022/01/10 05:36:53;;;;;;;34.78;11.70;;;;;;;5.83;67.30;101629.72;5242454;28;20414;-45
2022/01/10 05:39:26;;;;;;;34.53;13.50;;;;;;;5.81;67.46;101633.38;5244767;28;20429;-46
2022/01/10 05:41:59;;;;;;;34.15;12.57;;;;;;;5.79;67.46;101636.09;5239936;28;20412;-44
2022/01/10 05:44:31;;;;;;;36.53;13.52;;;;;;;5.74;67.71;101628.53;5249275;28;20890;-46
2022/01/10 05:47:04;;;;;;;41.47;14.20;;;;;;;5.73;67.57;101631.28;5250293;28;20406;-51
2022/01/10 05:49:45;;;;;;;35.90;13.32;;;;;;;5.70;67.36;101641.97;5245195;28;20482;-46
2022/01/10 05:52:17;;;;;;;38.88;13.52;;;;;;;5.67;67.40;101637.75;5245726;28;20413;-45
2022/01/10 05:54:51;;;;;;;33.17;12.65;;;;;;;5.64;67.54;101642.34;5242239;28;20438;-46
2022/01/10 05:57:23;;;;;;;35.00;14.80;;;;;;;5.57;67.24;101646.28;5245289;28;20449;-46
2022/01/10 05:59:55;;;;;;;35.53;13.63;;;;;;;5.50;67.55;101646.66;5247272;28;20493;-44
2022/01/10 06:02:27;;;;;;;44.33;14.18;;;;;;;5.46;67.48;101662.69;5241927;28;20430;-46
2022/01/10 06:05:05;;;;;;;43.40;14.95;;;;;;;5.41;67.52;101673.44;5245909;28;20412;-44
2022/01/10 06:07:38;;;;;;;39.90;14.07;;;;;;;5.37;67.70;101677.19;5238732;28;20427;-45
2022/01/10 06:10:12;;;;;;;44.50;16.38;;;;;;;5.34;67.49;101677.38;5246625;28;20390;-45
2022/01/10 06:12:44;;;;;;;38.50;15.60;;;;;;;5.30;67.46;101687.22;5244220;28;20966;-47
2022/01/10 06:15:17;;;;;;;40.13;15.30;;;;;;;5.28;67.31;101690.88;5243336;28;20421;-45
2022/01/10 06:17:49;;;;;;;41.78;15.40;;;;;;;5.23;67.62;101700.75;5247109;28;20426;-44
2022/01/10 06:20:22;;;;;;;35.03;14.20;;;;;;;5.18;67.55;101708.91;5248062;28;20446;-45
2022/01/10 06:22:54;;;;;;;35.17;15.35;;;;;;;5.17;67.62;101717.72;5245213;28;20428;-44
2022/01/10 06:25:29;;;;;;;40.33;14.20;;;;;;;5.14;67.33;101725.75;5240018;28;20433;-45
2022/01/10 06:28:01;;;;;;;36.78;15.98;;;;;;;5.10;67.44;101729.47;5239035;28;20418;-48
2022/01/10 06:30:34;;;;;;;41.80;16.42;;;;;;;4.98;67.49;101719.75;5250044;28;20484;-44
2022/01/10 06:33:06;;;;;;;42.35;16.02;;;;;;;5.04;67.51;101737.69;5245654;28;20402;-45
2022/01/10 06:35:39;;;;;;;47.10;19.10;;;;;;;5.01;67.43;101746.56;5235053;28;20425;-46
2022/01/10 06:38:11;;;;;;;48.33;19.48;;;;;;;4.98;67.50;101746.75;5251050;28;20408;-44
2022/01/10 06:40:45;;;;;;;45.67;18.83;;;;;;;4.94;67.37;101750.50;5246236;28;20429;-44
2022/01/10 06:43:17;;;;;;;46.13;17.43;;;;;;;4.93;67.46;101748.84;5251150;28;20432;-44
2022/01/10 06:45:49;;;;;;;43.95;17.90;;;;;;;4.89;67.48;101749.09;5247544;28;20766;-49
2022/01/10 06:48:22;;;;;;;46.15;18.77;;;;;;;4.85;67.15;101759.72;5248789;28;20419;-45
2022/01/10 06:50:55;;;;;;;47.78;19.00;;;;;;;4.81;67.22;101757.41;5235797;28;20907;-44
2022/01/10 06:53:28;;;;;;;39.63;18.02;;;;;;;4.77;67.19;101771.56;5235701;28;20415;-52
2022/01/10 06:56:01;;;;;;;44.42;18.70;;;;;;;4.70;67.32;101778.94;5236643;28;20412;-43
2022/01/10 06:58:34;;;;;;;53.88;22.15;;;;;;;4.67;67.22;101780.91;5234756;28;20546;-45
2022/01/10 07:01:06;;;;;;;44.88;19.00;;;;;;;4.63;67.29;101791.53;5235488;28;20394;-44
2022/01/10 07:03:39;;;;;;;40.40;19.13;;;;;;;4.59;67.29;101797.06;5231393;28;20404;-49
2022/01/10 07:06:11;;;;;;;55.85;20.67;;;;;;;4.54;67.42;101796.47;5235200;28;20482;-45
2022/01/10 07:08:43;;;;;;;48.05;20.40;;;;;;;4.52;67.20;101809.66;5237627;28;20407;-44
2022/01/10 07:11:17;;;;;;;59.88;20.20;;;;;;;4.50;67.31;101810.66;5235205;28;20910;-44
2022/01/10 07:13:50;;;;;;;51.58;22.10;;;;;;;4.45;67.31;101808.28;5235503;28;20412;-44
2022/01/10 07:16:22;;;;;;;67.00;25.90;;;;;;;4.44;67.25;101830.16;5235052;28;20400;-44
2022/01/10 07:18:54;;;;;;;74.25;29.05;;;;;;;4.43;67.37;101833.69;5234700;28;20410;-43
2022/01/10 07:21:27;;;;;;;69.70;27.88;;;;;;;4.44;67.49;101842.38;5234874;28;20411;-44
2022/01/10 07:23:59;;;;;;;66.03;27.38;;;;;;;4.41;67.40;101842.56;5234970;28;20418;-44
2022/01/10 07:26:33;;;;;;;61.80;25.85;;;;;;;4.36;67.48;101845.41;5239966;28;20406;-43
2022/01/10 07:29:07;;;;;;;59.63;23.17;;;;;;;4.38;67.48;101854.03;5255822;28;20410;-44
2022/01/10 07:31:40;;;;;;;57.97;25.00;;;;;;;4.37;67.50;101857.59;5253651;28;20390;-47
2022/01/10 07:34:15;;;;;;;54.63;25.27;;;;;;;4.36;67.34;101866.34;5254977;28;20496;-44
2022/01/10 07:36:47;;;;;;;66.13;26.60;;;;;;;4.33;67.56;101861.28;5239364;28;20415;-44
2022/01/10 07:39:20;;;;;;;60.10;25.67;;;;;;;4.35;67.27;101872.50;5237728;28;20514;-45
2022/01/10 07:41:53;;;;;;;60.03;26.05;;;;;;;4.35;67.33;101880.34;5254926;28;20406;-43
2022/01/10 07:44:26;;;;;;;56.78;24.35;;;;;;;4.37;67.39;101888.97;5255900;28;20446;-43
2022/01/10 07:46:58;;;;;;;74.88;29.40;;;;;;;4.37;67.37;101894.19;5255193;28;20406;-44
2022/01/10 07:49:31;;;;;;;126.57;68.88;;;;;;;4.38;67.57;101903.72;5255727;28;20523;-44
2022/01/10 07:52:04;;;;;;;64.10;28.98;;;;;;;4.39;67.45;101908.84;5255475;28;20801;-46
2022/01/10 07:54:37;;;;;;;80.22;34.95;;;;;;;4.41;67.59;101916.63;5255115;28;20404;-45
2022/01/10 07:57:10;;;;;;;71.38;32.17;;;;;;;4.44;67.66;101915.63;5248096;28;20428;-47
2022/01/10 07:59:44;;;;;;;78.65;34.95;;;;;;;4.45;67.46;101928.59;5253465;28;20406;-44
2022/01/10 08:02:16;;;;;;;71.05;32.83;;;;;;;4.52;67.50;101924.75;5253493;28;20521;-43
2022/01/10 08:04:49;;;;;;;81.68;34.10;;;;;;;4.58;67.51;101929.66;5254680;28;20402;-44
2022/01/10 08:07:21;;;;;;;92.13;36.63;;;;;;;4.61;67.63;101934.72;5254774;28;20405;-44
2022/01/10 08:09:54;;;;;;;82.30;36.45;;;;;;;4.56;67.64;101922.81;5254839;28;20402;-47
2022/01/10 08:12:28;;;;;;;71.13;35.75;;;;;;;4.73;67.48;101933.16;5254818;28;20416;-44
2022/01/10 08:15:00;;;;;;;79.95;34.90;;;;;;;4.79;67.55;101948.53;5255028;28;20432;-46
2022/01/10 08:17:33;;;;;;;78.22;36.15;;;;;;;4.83;67.64;101951.81;5255159;28;20416;-44
2022/01/10 08:20:07;;;;;;;83.82;36.25;;;;;;;4.91;67.28;101962.72;5255020;28;20413;-44
2022/01/10 08:22:39;;;;;;;78.05;37.05;;;;;;;4.97;67.49;101961.53;5252464;28;20766;-47
2022/01/10 08:25:12;;;;;;;76.80;33.78;;;;;;;5.03;67.66;101967.25;5254908;28;20401;-46
2022/01/10 08:27:46;;;;;;;67.88;32.53;;;;;;;5.12;67.58;101978.16;5242193;28;20411;-45
2022/01/10 08:30:19;;;;;;;67.57;31.58;;;;;;;5.18;67.57;101985.66;5235792;28;20416;-44
2022/01/10 08:32:51;;;;;;;58.03;30.08;;;;;;;5.25;67.53;101992.25;5255020;28;20417;-45
2022/01/10 08:35:24;;;;;;;63.70;31.50;;;;;;;5.30;67.57;101995.47;5254615;28;20489;-44
2022/01/10 08:37:57;;;;;;;68.72;29.10;;;;;;;5.37;67.60;102007.25;5254836;28;20414;-45
2022/01/10 08:40:29;;;;;;;56.20;28.20;;;;;;;5.45;67.30;101999.81;5254692;28;20398;-45
2022/01/10 08:43:06;;;;;;;59.75;27.67;;;;;;;5.50;67.33;101997.75;5254632;28;20488;-45
2022/01/10 08:45:39;;;;;;;52.72;27.40;;;;;;;5.54;67.41;101999.28;5252234;28;20497;-45
2022/01/10 08:48:12;;;;;;;54.90;28.45;;;;;;;5.59;67.43;101995.56;5243375;28;20399;-45
2022/01/10 08:50:45;;;;;;;58.07;28.23;;;;;;;5.71;67.40;101998.28;5247601;28;20417;-48
2022/01/10 08:53:18;;;;;;;56.28;25.92;;;;;;;5.81;67.17;102003.84;5253906;28;20413;-45
2022/01/10 08:55:50;;;;;;;54.35;26.38;;;;;;;5.90;67.52;102000.69;5247888;28;20904;-45
2022/01/10 08:58:26;;;;;;;52.10;25.27;;;;;;;5.96;67.09;102008.22;5239025;28;20417;-46
2022/01/10 09:00:58;;;;;;;58.20;25.23;;;;;;;6.02;67.32;102008.78;5250459;28;20437;-45
2022/01/10 09:03:31;;;;;;;43.30;23.23;;;;;;;6.05;67.36;102011.22;5246159;28;20419;-46
2022/01/10 09:06:04;;;;;;;52.15;24.80;;;;;;;6.05;67.50;102011.22;5250149;28;20844;-45
2022/01/10 09:08:40;;;;;;;46.17;23.85;;;;;;;6.10;67.47;102017.03;5249405;28;20418;-48
2022/01/10 09:11:12;;;;;;;50.50;24.08;;;;;;;6.11;67.55;102014.31;5244393;28;20402;-44
2022/01/10 09:13:46;;;;;;;53.17;23.75;;;;;;;5.85;67.37;101966.00;5244798;28;20432;-46
2022/01/10 09:16:18;;;;;;;50.00;21.88;;;;;;;6.21;67.49;102023.31;5250333;28;20410;-44
2022/01/10 09:18:51;;;;;;;50.50;23.23;;;;;;;6.25;67.73;102029.22;5247284;28;20486;-44
2022/01/10 09:21:23;;;;;;;47.83;23.57;;;;;;;6.32;67.60;102037.56;5252739;28;20502;-46
2022/01/10 09:23:56;;;;;;;41.10;21.67;;;;;;;6.39;67.38;102039.72;5251552;28;20440;-46
2022/01/10 09:26:28;;;;;;;41.75;20.58;;;;;;;6.45;67.42;102049.88;5248745;28;20823;-45
2022/01/10 09:29:02;;;;;;;43.00;20.80;;;;;;;6.51;67.56;102047.81;5251224;28;20480;-44
2022/01/10 09:31:34;;;;;;;46.83;21.05;;;;;;;6.57;67.67;102068.44;5252039;28;20421;-44
2022/01/10 09:34:06;;;;;;;48.28;20.95;;;;;;;6.58;67.40;102070.13;5251854;28;21183;-45
2022/01/10 09:36:39;;;;;;;35.47;20.00;;;;;;;6.65;67.45;102071.41;5250755;28;20476;-46
2022/01/10 09:39:13;;;;;;;38.92;21.30;;;;;;;6.72;67.70;102070.13;5242380;28;20421;-44
2022/01/10 09:41:45;;;;;;;38.67;21.38;;;;;;;6.80;67.58;102075.72;5242778;28;20770;-46
2022/01/10 09:44:19;;;;;;;38.17;21.20;;;;;;;6.85;67.51;102084.16;5248951;28;20405;-45
2022/01/10 09:46:52;;;;;;;42.28;20.17;;;;;;;6.83;67.56;102080.78;5249173;28;20902;-46
2022/01/10 09:49:24;;;;;;;41.72;21.20;;;;;;;6.98;67.45;102099.16;5244615;28;20429;-44
2022/01/10 09:51:56;;;;;;;46.50;21.30;;;;;;;6.99;67.57;102106.94;5244321;28;20434;-46
2022/01/10 09:54:29;;;;;;;37.33;23.10;;;;;;;7.02;67.54;102111.16;5246533;28;27882;-45
2022/01/10 09:57:01;;;;;;;47.63;21.00;;;;;;;7.07;67.46;102114.34;5241707;28;20394;-44
2022/01/10 09:59:35;;;;;;;41.73;20.60;;;;;;;7.12;67.48;102128.91;5249964;28;20468;-44
2022/01/10 10:02:08;;;;;;;35.95;20.33;;;;;;;7.18;67.59;102138.16;5242641;28;20808;-45
2022/01/10 10:04:41;;;;;;;39.75;19.75;;;;;;;7.22;67.61;102139.66;5239426;28;20403;-45
2022/01/10 10:07:35;;;;;;;38.58;18.63;;;;;;;7.27;67.68;102148.09;5248866;28;20965;-44
2022/01/10 10:10:11;;;;;;;39.10;18.58;;;;;;;6.98;67.55;102094.75;5245045;28;20494;-45
2022/01/10 10:12:47;;;;;;;37.17;19.30;;;;;;;7.35;67.69;102151.09;5244213;28;20405;-44
2022/01/10 10:15:27;;;;;;;42.88;18.98;;;;;;;7.38;67.59;102155.31;5245959;28;20899;-49
2022/01/10 10:17:59;;;;;;;37.38;17.73;;;;;;;7.38;67.87;102153.53;5244702;28;20453;-45
2022/01/10 10:20:31;;;;;;;37.87;19.30;;;;;;;7.41;67.74;102155.13;5235894;28;20420;-48
2022/01/10 10:23:05;;;;;;;39.05;18.15;;;;;;;7.49;67.88;102165.13;5244744;28;20824;-45
2022/01/10 10:25:38;;;;;;;36.83;16.92;;;;;;;7.56;67.75;102164.66;5250842;28;20410;-49
2022/01/10 10:28:10;;;;;;;43.27;18.33;;;;;;;7.60;67.75;102170.56;5239228;28;20470;-46
2022/01/10 10:30:45;;;;;;;32.15;18.00;;;;;;;7.66;67.74;102170.19;5245567;28;20477;-45
2022/01/10 10:33:23;;;;;;;34.25;17.73;;;;;;;7.75;67.84;102180.09;5242993;28;20418;-44
2022/01/10 10:35:58;;;;;;;78.13;47.17;;;;;;;7.81;67.83;102177.09;5242281;28;20420;-45
2022/01/10 10:38:30;;;;;;;37.33;17.93;;;;;;;7.83;67.79;102177.84;5241252;28;20414;-45
2022/01/10 10:41:04;;;;;;;35.47;18.05;;;;;;;7.91;67.67;102179.13;5244705;28;20481;-45
2022/01/10 10:43:39;;;;;;;34.63;18.17;;;;;;;7.95;67.79;102191.13;5248866;28;20410;-45
2022/01/10 10:46:17;;;;;;;38.28;19.27;;;;;;;8.00;67.83;102197.78;5249878;28;20424;-48
2022/01/10 10:48:52;;;;;;;48.20;19.63;;;;;;;8.06;67.78;102197.38;5252891;28;20420;-45
2022/01/10 10:51:28;;;;;;;31.43;18.20;;;;;;;8.13;67.54;102199.59;5252667;28;20418;-45
2022/01/10 10:54:04;;;;;;;36.97;18.85;;;;;;;8.15;67.53;102203.00;5252942;28;20398;-45
2022/01/10 10:56:38;;;;;;;33.45;18.33;;;;;;;8.19;67.55;102210.56;5253237;28;20481;-45
2022/01/10 10:59:12;;;;;;;38.42;19.50;;;;;;;8.24;67.61;102213.75;5249692;28;20406;-46
2022/01/10 11:01:46;;;;;;;40.23;21.30;;;;;;;8.27;67.57;102216.19;5252745;28;20450;-45
2022/01/10 11:04:18;;;;;;;44.00;23.92;;;;;;;8.31;67.58;102207.13;5244233;28;20408;-43
2022/01/10 11:06:52;;;;;;;48.53;24.30;;;;;;;8.34;67.54;102213.16;5246070;28;20425;-43
2022/01/10 11:09:25;;;;;;;44.03;23.90;;;;;;;8.38;67.58;102219.88;5231505;28;20443;-44
2022/01/10 11:11:57;;;;;;;38.47;21.02;;;;;;;8.43;67.46;102217.84;5238886;28;20406;-45
2022/01/10 11:14:30;;;;;;;41.25;21.73;;;;;;;8.45;67.42;102232.56;5251723;28;20421;-44
2022/01/10 11:17:04;;;;;;;36.03;19.52;;;;;;;8.47;67.44;102235.09;5252252;28;20412;-44
2022/01/10 11:19:36;;;;;;;45.65;22.48;;;;;;;8.50;67.31;102235.75;5250638;28;20398;-45
2022/01/10 11:22:11;;;;;;;42.08;22.65;;;;;;;8.57;67.20;102241.44;5249650;28;20408;-44
2022/01/10 11:25:25;;;;;;;40.58;21.35;;;;;;;8.64;67.14;102248.00;5248777;28;20493;-44
2022/01/10 11:28:01;;;;;;;38.55;20.92;;;;;;;8.67;66.89;102246.94;5250114;28;20398;-45
2022/01/10 11:30:36;;;;;;;48.70;24.83;;;;;;;8.72;67.07;102250.94;5248519;28;20402;-45
2022/01/10 11:33:13;;;;;;;38.05;19.95;;;;;;;8.66;66.98;102234.72;5243952;28;21049;-45
2022/01/10 11:35:48;;;;;;;35.60;19.60;;;;;;;8.81;66.87;102254.75;5246335;28;20906;-44
2022/01/10 11:38:31;;;;;;;33.17;18.95;;;;;;;8.90;66.71;102255.94;5248598;28;20426;-45
2022/01/10 11:41:07;;;;;;;35.17;20.30;;;;;;;8.93;66.67;102258.38;5253310;28;20890;-45
2022/01/10 11:43:47;;;;;;;33.55;19.35;;;;;;;8.99;66.53;102257.94;5252121;28;20406;-48
2022/01/10 11:46:25;;;;;;;42.85;22.95;;;;;;;9.07;66.39;102266.16;5251834;28;20416;-45
2022/01/10 11:49:02;;;;;;;40.03;20.73;;;;;;;9.15;66.35;102274.38;5251850;28;20531;-47
2022/01/10 11:51:37;;;;;;;33.60;19.27;;;;;;;9.21;66.23;102273.97;5253411;28;20416;-44